createdAt,value
2022-11-21T00:01:23.308Z,19.20
2022-11-21T00:03:50.661Z,18.65
2022-11-21T00:06:19.300Z,17.63
2022-11-21T00:08:47.427Z,19.15
2022-11-21T00:11:15.103Z,19.23
2022-11-21T00:13:42.911Z,18.30
2022-11-21T00:16:14.956Z,17.75
2022-11-21T00:18:42.323Z,17.05
2022-11-21T00:21:15.749Z,16.52
2022-11-21T00:23:48.047Z,16.48
2022-11-21T00:26:17.335Z,17.40
2022-11-21T00:28:45.177Z,17.08
2022-11-21T00:31:23.575Z,17.77
2022-11-21T00:33:50.887Z,17.67
2022-11-21T00:36:18.110Z,17.35
2022-11-21T00:38:45.285Z,17.70
2022-11-21T00:41:12.544Z,17.83
2022-11-21T00:43:39.736Z,18.42
2022-11-21T00:46:06.836Z,19.52
2022-11-21T00:48:34.067Z,18.38
2022-11-21T00:51:01.450Z,21.13
2022-11-21T00:53:29.648Z,23.40
2022-11-21T00:55:57.555Z,26.58
2022-11-21T00:58:24.823Z,24.15
2022-11-21T01:00:52.401Z,22.20
2022-11-21T01:03:19.842Z,22.08
2022-11-21T01:05:47.036Z,23.33
2022-11-21T01:08:14.169Z,25.17
2022-11-21T01:10:41.453Z,26.38
2022-11-21T01:13:08.596Z,25.60
2022-11-21T01:15:35.732Z,26.00
2022-11-21T01:18:03.052Z,25.07
2022-11-21T01:20:30.150Z,24.77
2022-11-21T01:22:57.285Z,23.95
2022-11-21T01:25:24.522Z,24.20
2022-11-21T01:27:51.689Z,24.63
2022-11-21T01:30:18.896Z,23.13
2022-11-21T01:32:50.003Z,39.60
2022-11-21T01:35:18.364Z,29.25
2022-11-21T01:37:50.115Z,26.38
2022-11-21T01:40:17.548Z,26.45
2022-11-21T01:43:12.212Z,25.77
2022-11-21T01:46:11.078Z,24.98
2022-11-21T01:49:08.287Z,23.83
2022-11-21T01:52:04.809Z,23.10
2022-11-21T01:57:52.618Z,20.83
2022-11-21T02:00:27.087Z,22.80
2022-11-21T02:03:00.738Z,24.73
2022-11-21T02:05:35.572Z,23.45
2022-11-21T02:08:19.993Z,23.57
2022-11-21T02:11:18.745Z,24.48
2022-11-21T02:13:45.951Z,27.52
2022-11-21T02:16:13.296Z,27.15
2022-11-21T02:18:40.574Z,24.50
2022-11-21T02:21:48.956Z,24.80
2022-11-21T02:25:13.123Z,22.98
2022-11-21T02:27:40.568Z,25.10
2022-11-21T02:30:10.990Z,23.52
2022-11-21T02:32:47.082Z,22.50
2022-11-21T02:35:18.586Z,21.42
2022-11-21T02:37:54.730Z,22.88
2022-11-21T02:40:31.931Z,21.48
2022-11-21T02:43:16.503Z,22.92
2022-11-21T02:45:46.473Z,22.05
2022-11-21T02:48:14.896Z,22.67
2022-11-21T02:50:46.154Z,23.10
2022-11-21T02:53:18.649Z,23.73
2022-11-21T02:55:46.714Z,24.80
2022-11-21T02:58:14.383Z,23.83
2022-11-21T03:00:43.455Z,21.38
2022-11-21T03:03:11.210Z,21.63
2022-11-21T03:05:40.051Z,24.45
2022-11-21T03:08:07.916Z,23.67
2022-11-21T03:10:35.080Z,20.30
2022-11-21T03:13:02.361Z,19.98
2022-11-21T03:15:33.433Z,20.45
2022-11-21T03:18:02.929Z,19.98
2022-11-21T03:20:34.827Z,20.17
2022-11-21T03:23:02.822Z,19.48
2022-11-21T03:25:29.931Z,20.17
2022-11-21T03:27:57.101Z,20.98
2022-11-21T03:30:27.113Z,21.20
2022-11-21T03:32:58.488Z,18.88
2022-11-21T03:35:25.802Z,19.00
2022-11-21T03:37:53.048Z,20.73
2022-11-21T03:40:20.316Z,20.58
2022-11-21T03:42:47.504Z,20.17
2022-11-21T03:45:14.829Z,18.02
2022-11-21T03:47:42.073Z,19.50
2022-11-21T03:50:10.647Z,19.25
2022-11-21T03:52:37.850Z,19.00
2022-11-21T03:55:05.767Z,19.35
2022-11-21T03:57:33.022Z,19.05
2022-11-21T04:00:00.205Z,19.70
2022-11-21T04:02:27.340Z,18.25
2022-11-21T04:04:54.493Z,19.92
2022-11-21T04:07:21.740Z,19.55
2022-11-21T04:09:48.911Z,19.98
2022-11-21T04:12:16.056Z,19.27
2022-11-21T04:14:43.191Z,19.75
2022-11-21T04:17:10.369Z,19.95
2022-11-21T04:19:37.505Z,19.65
2022-11-21T04:22:04.748Z,18.88
2022-11-21T04:24:31.911Z,19.80
2022-11-21T04:26:59.025Z,20.90
2022-11-21T04:29:26.207Z,20.20
2022-11-21T04:31:53.320Z,20.80
2022-11-21T04:34:20.491Z,20.17
2022-11-21T04:36:47.676Z,21.40
2022-11-21T04:39:14.896Z,20.65
2022-11-21T04:41:42.193Z,21.55
2022-11-21T04:44:09.429Z,26.17
2022-11-21T04:46:36.560Z,25.52
2022-11-21T04:49:03.810Z,22.33
2022-11-21T04:51:30.967Z,22.73
2022-11-21T04:53:58.127Z,21.83
2022-11-21T04:56:25.296Z,21.45
2022-11-21T04:58:54.132Z,20.17
2022-11-21T05:01:21.398Z,20.08
2022-11-21T05:03:48.695Z,21.15
2022-11-21T05:06:15.948Z,20.20
2022-11-21T05:08:45.610Z,20.08
2022-11-21T05:11:33.493Z,20.85
2022-11-21T05:14:00.651Z,21.52
2022-11-21T05:16:27.936Z,21.15
2022-11-21T05:18:55.174Z,20.77
2022-11-21T05:21:22.390Z,22.00
2022-11-21T05:23:49.622Z,21.83
2022-11-21T05:26:16.754Z,21.30
2022-11-21T05:28:44.023Z,21.60
2022-11-21T05:31:11.188Z,21.17
2022-11-21T05:33:38.303Z,21.00
2022-11-21T05:36:05.675Z,21.35
2022-11-21T05:38:32.849Z,17.77
2022-11-21T05:40:59.964Z,16.52
2022-11-21T05:43:45.569Z,17.27
2022-11-21T05:46:16.349Z,17.77
2022-11-21T05:48:43.779Z,17.70
2022-11-21T05:51:11.615Z,16.70
2022-11-21T05:53:38.999Z,16.27
2022-11-21T05:56:11.052Z,17.42
2022-11-21T05:58:38.715Z,17.27
2022-11-21T06:01:08.464Z,17.63
2022-11-21T06:03:40.848Z,17.50
2022-11-21T06:06:13.019Z,17.35
2022-11-21T06:08:45.670Z,18.30
2022-11-21T06:11:17.129Z,18.52
2022-11-21T06:13:44.660Z,17.73
2022-11-21T06:16:19.549Z,21.35
2022-11-21T06:18:57.909Z,21.70
2022-11-21T06:21:28.696Z,19.35
2022-11-21T06:23:58.413Z,18.95
2022-11-21T06:26:28.154Z,18.67
2022-11-21T06:28:55.768Z,19.30
2022-11-21T06:31:26.439Z,18.63
2022-11-21T06:33:57.607Z,18.27
2022-11-21T06:36:27.113Z,17.27
2022-11-21T06:38:56.471Z,17.17
2022-11-21T06:41:30.115Z,17.05
2022-11-21T06:44:01.999Z,16.40
2022-11-21T06:46:29.572Z,18.23
2022-11-21T06:48:56.746Z,17.02
2022-11-21T06:51:26.015Z,16.65
2022-11-21T06:53:59.324Z,16.02
2022-11-21T06:56:31.893Z,16.80
2022-11-21T06:58:59.380Z,15.88
2022-11-21T07:01:26.770Z,17.58
2022-11-21T07:03:54.792Z,15.95
2022-11-21T07:06:23.041Z,17.75
2022-11-21T07:11:44.143Z,18.05
2022-11-21T07:14:14.454Z,17.73
2022-11-21T07:16:41.700Z,16.95
2022-11-21T07:19:09.011Z,19.90
2022-11-21T07:21:36.220Z,18.65
2022-11-21T07:24:03.945Z,17.65
2022-11-21T07:26:32.273Z,18.52
2022-11-21T07:28:59.410Z,19.00
2022-11-21T07:31:26.883Z,18.85
2022-11-21T07:33:54.084Z,19.27
2022-11-21T07:36:21.370Z,19.50
2022-11-21T07:38:48.595Z,19.48
2022-11-21T07:41:15.846Z,17.98
2022-11-21T07:43:43.144Z,17.95
2022-11-21T07:46:10.681Z,19.38
2022-11-21T07:48:37.845Z,23.48
2022-11-21T07:51:05.947Z,25.83
2022-11-21T07:53:33.301Z,20.95
2022-11-21T07:56:00.760Z,17.15
2022-11-21T07:58:28.190Z,17.33
2022-11-21T08:00:55.463Z,17.73
2022-11-21T08:03:23.432Z,17.02
2022-11-21T08:05:50.672Z,19.20
2022-11-21T08:08:18.012Z,19.25
2022-11-21T08:10:46.917Z,18.33
2022-11-21T08:13:15.077Z,17.90
2022-11-21T08:15:42.492Z,15.30
2022-11-21T08:18:23.234Z,16.60
2022-11-21T08:20:50.548Z,16.98
2022-11-21T08:23:17.683Z,15.85
2022-11-21T08:25:45.201Z,15.15
2022-11-21T08:28:12.751Z,16.88
2022-11-21T08:30:40.676Z,16.30
2022-11-21T08:33:08.429Z,16.88
2022-11-21T08:35:39.136Z,14.60
2022-11-21T08:38:06.760Z,15.77
2022-11-21T08:40:35.559Z,15.98
2022-11-21T08:43:07.379Z,15.65
2022-11-21T08:45:37.409Z,15.45
2022-11-21T08:48:11.279Z,17.10
2022-11-21T08:50:38.818Z,16.45
2022-11-21T08:53:06.040Z,16.77
2022-11-21T08:55:33.259Z,15.85
2022-11-21T08:58:00.693Z,16.73
2022-11-21T09:00:27.956Z,17.45
2022-11-21T09:02:55.182Z,17.48
2022-11-21T09:05:22.544Z,16.70
2022-11-21T09:07:57.611Z,15.90
2022-11-21T09:10:26.938Z,16.85
2022-11-21T09:12:54.595Z,16.40
2022-11-21T09:15:40.484Z,16.45
2022-11-21T09:18:08.293Z,15.98
2022-11-21T09:20:43.289Z,16.02
2022-11-21T09:23:15.861Z,18.85
2022-11-21T09:25:44.502Z,15.63
2022-11-21T09:28:13.871Z,14.75
2022-11-21T09:30:42.940Z,15.85
2022-11-21T09:33:17.098Z,14.02
2022-11-21T09:35:44.480Z,14.93
2022-11-21T09:38:11.640Z,15.70
2022-11-21T09:40:44.465Z,14.57
2022-11-21T09:43:42.680Z,14.98
2022-11-21T09:46:14.077Z,15.15
2022-11-21T09:49:00.774Z,14.48
2022-11-21T09:51:31.385Z,14.80
2022-11-21T09:54:09.890Z,14.27
2022-11-21T09:56:41.651Z,13.32
2022-11-21T09:59:38.825Z,14.60
2022-11-21T10:02:20.716Z,14.25
2022-11-21T10:04:49.495Z,14.52
2022-11-21T10:07:26.847Z,15.02
2022-11-21T10:10:38.439Z,14.30
2022-11-21T10:13:37.972Z,14.98
2022-11-21T10:16:41.813Z,13.68
2022-11-21T10:19:53.767Z,14.70
2022-11-21T10:23:10.077Z,15.10
2022-11-21T10:25:39.059Z,14.45
2022-11-21T10:28:28.012Z,14.27
2022-11-21T10:30:58.276Z,14.00
2022-11-21T10:33:33.998Z,14.57
2022-11-21T10:38:50.220Z,15.13
2022-11-21T10:41:24.820Z,12.20
2022-11-21T10:44:44.859Z,12.98
2022-11-21T10:47:30.923Z,14.32
2022-11-21T10:50:08.962Z,15.20
2022-11-21T10:53:23.310Z,13.95
2022-11-21T10:56:06.071Z,12.45
2022-11-21T10:58:56.119Z,12.20
2022-11-21T11:01:35.016Z,12.85
2022-11-21T11:04:27.128Z,12.98
2022-11-21T11:06:56.260Z,10.35
2022-11-21T11:09:35.834Z,11.95
2022-11-21T11:12:49.944Z,11.82
2022-11-21T11:15:23.102Z,11.70
2022-11-21T11:18:09.166Z,12.90
2022-11-21T11:20:45.185Z,12.52
2022-11-21T11:23:22.409Z,12.38
2022-11-21T11:25:57.741Z,11.68
2022-11-21T11:28:36.927Z,12.88
2022-11-21T11:31:04.241Z,11.90
2022-11-21T11:33:56.769Z,12.07
2022-11-21T11:36:31.478Z,10.50
2022-11-21T11:39:00.989Z,10.98
2022-11-21T11:42:49.328Z,10.55
2022-11-21T11:46:19.934Z,11.50
2022-11-21T11:49:17.130Z,10.73
2022-11-21T11:51:55.063Z,11.02
2022-11-21T11:54:48.970Z,11.95
2022-11-21T11:57:17.703Z,11.20
2022-11-21T11:59:57.772Z,9.88
2022-11-21T12:02:45.420Z,9.60
2022-11-21T12:05:25.385Z,9.20
2022-11-21T12:11:49.083Z,8.05
2022-11-21T12:15:06.116Z,6.28
2022-11-21T12:18:00.971Z,7.45
2022-11-21T12:20:42.866Z,7.55
2022-11-21T12:23:11.871Z,6.75
2022-11-21T12:26:03.316Z,8.13
2022-11-21T12:29:23.282Z,7.53
2022-11-21T12:32:32.851Z,7.00
2022-11-21T12:35:45.359Z,8.10
2022-11-21T12:39:02.605Z,7.43
2022-11-21T12:42:07.318Z,7.13
2022-11-21T12:45:21.013Z,7.32
2022-11-21T12:48:35.069Z,7.72
2022-11-21T12:52:27.202Z,6.65
2022-11-21T12:55:37.742Z,6.25
2022-11-21T12:58:39.909Z,6.95
2022-11-21T13:01:51.027Z,6.53
2022-11-21T13:04:28.106Z,7.32
2022-11-21T13:06:57.674Z,6.57
2022-11-21T13:09:27.794Z,6.72
2022-11-21T13:12:07.884Z,7.38
2022-11-21T13:14:48.751Z,6.97
2022-11-21T13:17:26.298Z,7.72
2022-11-21T13:20:14.419Z,7.28
2022-11-21T13:22:41.536Z,6.95
2022-11-21T13:25:30.167Z,6.45
2022-11-21T13:28:17.436Z,6.00
2022-11-21T13:30:56.649Z,6.63
2022-11-21T13:33:36.096Z,6.82
2022-11-21T13:36:10.047Z,6.05
2022-11-21T13:38:55.156Z,6.75
2022-11-21T13:41:52.823Z,6.95
2022-11-21T13:44:32.110Z,7.10
2022-11-21T13:47:25.956Z,8.32
2022-11-21T13:50:31.319Z,7.32
2022-11-21T13:53:33.309Z,7.45
2022-11-21T13:56:54.153Z,6.90
2022-11-21T14:00:20.069Z,7.65
2022-11-21T14:03:00.074Z,7.35
2022-11-21T14:05:46.125Z,7.38
2022-11-21T14:10:53.454Z,8.95
2022-11-21T14:13:35.775Z,9.43
2022-11-21T14:16:36.864Z,10.52
2022-11-21T14:19:05.468Z,10.35
2022-11-21T14:21:34.010Z,11.23
2022-11-21T14:24:17.625Z,10.63
2022-11-21T14:26:49.975Z,11.27
2022-11-21T14:29:40.441Z,11.10
2022-11-21T14:32:15.050Z,10.85
2022-11-21T14:34:42.183Z,11.38
2022-11-21T14:37:12.958Z,11.98
2022-11-21T14:39:44.826Z,11.10
2022-11-21T14:42:16.578Z,12.90
2022-11-21T14:44:44.393Z,11.98
2022-11-21T14:47:26.193Z,11.93
2022-11-21T14:49:58.705Z,12.60
2022-11-21T14:52:33.068Z,11.52
2022-11-21T14:57:53.728Z,12.43
2022-11-21T15:00:57.386Z,12.20
2022-11-21T15:03:24.262Z,12.88
2022-11-21T15:06:07.306Z,12.65
2022-11-21T15:11:38.313Z,12.20
2022-11-21T15:14:35.708Z,14.23
2022-11-21T15:17:11.411Z,14.52
2022-11-21T15:22:05.615Z,14.32
2022-11-21T15:24:43.837Z,14.93
2022-11-21T15:27:32.418Z,14.30
2022-11-21T15:30:10.281Z,13.88
2022-11-21T15:33:17.525Z,14.30
2022-11-21T15:35:54.195Z,14.70
2022-11-21T15:38:56.998Z,14.73
2022-11-21T15:41:38.655Z,14.30
2022-11-21T15:44:05.740Z,14.20
2022-11-21T15:46:42.350Z,14.20
2022-11-21T15:49:32.025Z,15.77
2022-11-21T15:52:06.961Z,15.07
2022-11-21T15:54:34.815Z,15.73
2022-11-21T15:57:02.303Z,16.52
2022-11-21T15:59:29.662Z,16.27
2022-11-21T16:01:56.973Z,17.10
2022-11-21T16:04:25.972Z,17.35
2022-11-21T16:06:55.182Z,18.52
2022-11-21T16:09:22.508Z,19.30
2022-11-21T16:11:50.179Z,19.88
2022-11-21T16:14:20.403Z,19.05
2022-11-21T16:16:47.857Z,20.27
2022-11-21T16:19:15.942Z,19.58
2022-11-21T16:21:43.404Z,20.13
2022-11-21T16:24:10.661Z,19.20
2022-11-21T16:26:37.978Z,19.55
2022-11-21T16:29:05.681Z,20.38
2022-11-21T16:31:33.745Z,19.30
2022-11-21T16:34:01.191Z,19.70
2022-11-21T16:36:30.870Z,22.20
2022-11-21T16:39:05.242Z,18.42
2022-11-21T16:41:35.298Z,19.55
2022-11-21T16:44:02.491Z,19.60
2022-11-21T16:46:29.745Z,21.33
2022-11-21T16:49:03.099Z,20.77
2022-11-21T16:51:31.002Z,20.85
2022-11-21T16:54:02.890Z,22.25
2022-11-21T16:56:33.092Z,22.43
2022-11-21T16:59:00.207Z,20.20
2022-11-21T17:01:28.438Z,21.25
2022-11-21T17:03:55.764Z,20.30
2022-11-21T17:06:28.106Z,25.23
2022-11-21T17:08:55.550Z,21.92
2022-11-21T17:11:28.295Z,22.83
2022-11-21T17:14:00.175Z,21.10
2022-11-21T17:16:27.727Z,20.42
2022-11-21T17:18:57.990Z,20.27
2022-11-21T17:21:26.853Z,22.15
2022-11-21T17:23:55.042Z,21.83
2022-11-21T17:26:28.535Z,23.67
2022-11-21T17:29:00.126Z,22.25
2022-11-21T17:31:28.071Z,22.75
2022-11-21T17:34:00.873Z,21.48
2022-11-21T17:36:30.470Z,24.48
2022-11-21T17:38:57.792Z,24.05
2022-11-21T17:41:26.471Z,24.65
2022-11-21T17:43:58.211Z,24.48
2022-11-21T17:46:26.541Z,25.42
2022-11-21T17:48:58.360Z,26.05
2022-11-21T17:51:34.235Z,25.95
2022-11-21T17:54:02.122Z,25.58
2022-11-21T17:56:33.431Z,25.52
2022-11-21T17:59:01.495Z,25.77
2022-11-21T18:01:29.404Z,27.48
2022-11-21T18:04:04.099Z,27.17
2022-11-21T18:06:39.928Z,27.98
2022-11-21T18:09:09.662Z,28.60
2022-11-21T18:11:40.302Z,29.55
2022-11-21T18:14:10.919Z,31.83
2022-11-21T18:16:39.609Z,31.13
2022-11-21T18:19:12.860Z,31.73
2022-11-21T18:21:40.107Z,30.38
2022-11-21T18:24:08.469Z,33.65
2022-11-21T18:26:39.815Z,33.60
2022-11-21T18:31:57.098Z,33.70
2022-11-21T18:34:24.345Z,32.70
2022-11-21T18:36:51.478Z,35.88
2022-11-21T18:39:18.656Z,37.40
2022-11-21T18:41:47.172Z,38.15
2022-11-21T18:44:21.492Z,37.33
2022-11-21T18:46:49.727Z,35.97
2022-11-21T18:49:16.845Z,34.20
2022-11-21T18:51:44.120Z,34.20
2022-11-21T18:54:11.639Z,33.88
2022-11-21T18:56:40.033Z,34.92
2022-11-21T18:59:07.642Z,33.63
2022-11-21T19:01:37.373Z,34.50
2022-11-21T19:04:04.849Z,35.22
2022-11-21T19:06:32.663Z,36.15
2022-11-21T19:09:00.025Z,37.45
2022-11-21T19:11:29.781Z,37.53
2022-11-21T19:13:59.320Z,37.85
2022-11-21T19:16:30.908Z,37.70
2022-11-21T19:21:47.010Z,40.80
2022-11-21T19:24:19.266Z,41.20
2022-11-21T19:26:50.117Z,42.40
2022-11-21T19:29:18.532Z,43.70
2022-11-21T19:31:46.257Z,44.40
2022-11-21T19:34:15.023Z,43.95
2022-11-21T19:36:42.837Z,43.58
2022-11-21T19:39:10.310Z,47.42
2022-11-21T19:41:37.947Z,48.60
2022-11-21T19:44:05.287Z,46.55
2022-11-21T19:46:37.004Z,46.95
2022-11-21T19:49:06.494Z,47.92
2022-11-21T19:51:39.264Z,49.10
2022-11-21T19:54:08.987Z,51.40
2022-11-21T19:56:37.075Z,51.58
2022-11-21T19:59:05.490Z,52.47
2022-11-21T20:01:34.927Z,50.45
2022-11-21T20:04:05.595Z,53.30
2022-11-21T20:06:45.800Z,54.22
2022-11-21T20:09:17.390Z,54.13
2022-11-21T20:11:48.572Z,55.80
2022-11-21T20:14:21.399Z,54.70
2022-11-21T20:16:51.148Z,52.83
2022-11-21T20:19:22.661Z,54.92
2022-11-21T20:21:50.423Z,54.15
2022-11-21T20:24:18.053Z,56.05
2022-11-21T20:26:45.408Z,56.20
2022-11-21T20:29:14.070Z,57.88
2022-11-21T20:31:41.686Z,57.72
2022-11-21T20:34:13.656Z,55.53
2022-11-21T20:36:41.834Z,56.45
2022-11-21T20:39:17.393Z,57.72
2022-11-21T20:41:47.987Z,57.00
2022-11-21T20:45:29.921Z,57.50
2022-11-21T20:47:08.329Z,56.55
2022-11-21T20:49:35.601Z,58.13
2022-11-21T20:53:43.898Z,56.70
2022-11-21T20:54:50.087Z,58.90
2022-11-21T20:57:17.396Z,56.83
2022-11-21T20:59:44.589Z,57.45
2022-11-21T21:02:13.610Z,57.65
2022-11-21T21:04:40.850Z,56.30
2022-11-21T21:07:08.187Z,52.78
2022-11-21T21:09:35.424Z,51.20
2022-11-21T21:12:02.621Z,50.65
2022-11-21T21:14:29.892Z,52.20
2022-11-21T21:16:57.172Z,51.60
2022-11-21T21:19:24.338Z,53.33
2022-11-21T21:21:51.487Z,52.03
2022-11-21T21:24:18.839Z,50.10
2022-11-21T21:26:49.247Z,52.60
2022-11-21T21:29:20.781Z,53.28
2022-11-21T21:31:52.890Z,50.88
2022-11-21T21:34:22.352Z,48.35
2022-11-21T21:36:51.086Z,49.08
2022-11-21T21:39:18.556Z,47.10
2022-11-21T21:41:47.032Z,48.20
2022-11-21T21:44:16.107Z,46.97
2022-11-21T21:46:43.836Z,46.67
2022-11-21T21:49:11.502Z,45.33
2022-11-21T21:51:39.847Z,44.90
2022-11-21T21:54:07.367Z,43.65
2022-11-21T21:56:34.569Z,42.72
2022-11-21T21:59:01.969Z,44.38
2022-11-21T22:01:32.334Z,44.83
2022-11-21T22:04:03.471Z,45.55
2022-11-21T22:06:34.253Z,46.63
2022-11-21T22:09:02.501Z,47.22
2022-11-21T22:11:33.234Z,48.88
2022-11-21T22:14:05.720Z,48.85
2022-11-21T22:16:33.429Z,49.80
2022-11-21T22:19:00.707Z,51.25
2022-11-21T22:21:32.739Z,52.28
2022-11-21T22:26:51.644Z,52.40
2022-11-21T22:29:18.836Z,53.83
2022-11-21T22:31:46.030Z,52.50
2022-11-21T22:34:14.115Z,54.42
2022-11-21T22:36:41.882Z,50.42
2022-11-21T22:39:09.343Z,50.22
2022-11-21T22:41:36.602Z,50.15
2022-11-21T22:44:03.984Z,52.97
2022-11-21T22:46:32.344Z,52.55
2022-11-21T22:48:59.736Z,49.08
2022-11-21T22:51:29.373Z,51.70
2022-11-21T22:53:57.402Z,48.67
2022-11-21T22:56:25.733Z,49.33
2022-11-21T22:58:53.467Z,48.22
2022-11-21T23:01:24.637Z,49.38
2022-11-21T23:03:53.094Z,47.28
2022-11-21T23:06:24.161Z,47.47
2022-11-21T23:08:54.140Z,48.30
2022-11-21T23:11:29.515Z,46.70
2022-11-21T23:13:57.551Z,45.13
2022-11-21T23:16:26.049Z,43.50
2022-11-21T23:18:55.327Z,44.90
2022-11-21T23:21:23.194Z,42.35
2022-11-21T23:23:50.399Z,39.55
2022-11-21T23:26:17.824Z,39.38
2022-11-21T23:28:45.012Z,38.15
2022-11-21T23:31:13.435Z,37.00
2022-11-21T23:33:40.753Z,35.70
2022-11-21T23:36:08.221Z,36.13
2022-11-21T23:38:35.410Z,33.35
2022-11-21T23:41:02.606Z,33.25
2022-11-21T23:43:29.899Z,32.17
2022-11-21T23:45:57.282Z,29.40
2022-11-21T23:48:24.547Z,31.02
2022-11-21T23:50:52.501Z,29.45
2022-11-21T23:53:22.500Z,28.55
2022-11-21T23:55:50.130Z,28.83
2022-11-21T23:58:17.585Z,29.40
